Imperial, California
Current Conditions -  °F | °C
As of 3:53 PM on Friday 24 Oct 2014 (Local Time) from KIPL Reporting Station
Clear Clear  
Wind Chill: 96°   Ceiling: Unl
Heat Index: 96°   Visibility: 10mi
Dew Point: 43°   Wind: 8mph
Humidity: 16%   Direction: 110°ESE
Pressure: 29.86"   Gusts: NA
Location:  32.85°N, 115.57°W
Report Text: KIPL 242253Z AUTO 11007KT 10SM CLR 36/06 A2986 RMK AO2 SLP112 T03560061
Loading
Personal Weather Stations






























Interactive Weather Map
Tropical Storm Tracking
New forecast layout! Learn more

10-Day Weather Forecast

Advertisements
Track Severe Weather on mobile